sensor_id;sensor_type;location;lat;lon;timestamp;P1;durP1;ratioP1;P2;durP2;ratioP2
53151;SDS011;39234;53.158;6.322;2023-04-10T00:02:08;35.90;;;25.10;;
53151;SDS011;39234;53.158;6.322;2023-04-10T00:04:34;36.47;;;25.15;;
53151;SDS011;39234;53.158;6.322;2023-04-10T00:07:00;40.47;;;27.63;;
53151;SDS011;39234;53.158;6.322;2023-04-10T00:09:25;35.72;;;26.70;;
53151;SDS011;39234;53.158;6.322;2023-04-10T00:11:52;39.25;;;26.27;;
53151;SDS011;39234;53.158;6.322;2023-04-10T00:14:18;39.83;;;26.88;;
53151;SDS011;39234;53.158;6.322;2023-04-10T00:16:48;36.67;;;26.73;;
53151;SDS011;39234;53.158;6.322;2023-04-10T00:19:15;35.47;;;26.60;;
53151;SDS011;39234;53.158;6.322;2023-04-10T00:21:41;37.25;;;27.70;;
53151;SDS011;39234;53.158;6.322;2023-04-10T00:24:08;39.10;;;27.23;;
53151;SDS011;39234;53.158;6.322;2023-04-10T00:26:34;40.03;;;27.75;;
53151;SDS011;39234;53.158;6.322;2023-04-10T00:29:03;38.13;;;27.48;;
53151;SDS011;39234;53.158;6.322;2023-04-10T00:31:30;40.45;;;28.17;;
53151;SDS011;39234;53.158;6.322;2023-04-10T00:33:56;40.42;;;27.85;;
53151;SDS011;39234;53.158;6.322;2023-04-10T00:36:22;41.38;;;28.52;;
53151;SDS011;39234;53.158;6.322;2023-04-10T00:38:47;41.45;;;28.95;;
53151;SDS011;39234;53.158;6.322;2023-04-10T00:41:16;39.25;;;28.95;;
53151;SDS011;39234;53.158;6.322;2023-04-10T00:43:42;39.95;;;28.73;;
53151;SDS011;39234;53.158;6.322;2023-04-10T00:46:08;44.65;;;29.45;;
53151;SDS011;39234;53.158;6.322;2023-04-10T00:48:34;44.20;;;29.80;;
53151;SDS011;39234;53.158;6.322;2023-04-10T00:51:00;43.90;;;28.38;;
53151;SDS011;39234;53.158;6.322;2023-04-10T00:53:27;42.35;;;29.48;;
53151;SDS011;39234;53.158;6.322;2023-04-10T00:55:53;45.05;;;29.67;;
53151;SDS011;39234;53.158;6.322;2023-04-10T00:58:20;47.05;;;32.47;;
53151;SDS011;39234;53.158;6.322;2023-04-10T01:00:46;42.72;;;29.73;;
53151;SDS011;39234;53.158;6.322;2023-04-10T01:03:12;47.58;;;31.23;;
53151;SDS011;39234;53.158;6.322;2023-04-10T01:05:44;42.22;;;30.95;;
53151;SDS011;39234;53.158;6.322;2023-04-10T01:08:22;43.83;;;30.58;;
53151;SDS011;39234;53.158;6.322;2023-04-10T01:11:17;44.60;;;32.17;;
53151;SDS011;39234;53.158;6.322;2023-04-10T01:14:10;43.97;;;31.40;;
53151;SDS011;39234;53.158;6.322;2023-04-10T01:17:07;46.20;;;32.17;;
53151;SDS011;39234;53.158;6.322;2023-04-10T01:23:11;45.30;;;31.67;;
53151;SDS011;39234;53.158;6.322;2023-04-10T01:25:43;44.63;;;32.33;;
53151;SDS011;39234;53.158;6.322;2023-04-10T01:30:44;47.15;;;33.17;;
53151;SDS011;39234;53.158;6.322;2023-04-10T01:33:14;48.58;;;32.42;;
53151;SDS011;39234;53.158;6.322;2023-04-10T01:35:43;47.05;;;32.13;;
53151;SDS011;39234;53.158;6.322;2023-04-10T01:38:14;44.95;;;31.98;;
53151;SDS011;39234;53.158;6.322;2023-04-10T01:40:43;50.75;;;31.70;;
53151;SDS011;39234;53.158;6.322;2023-04-10T01:43:14;45.45;;;32.03;;
53151;SDS011;39234;53.158;6.322;2023-04-10T01:45:42;45.13;;;32.85;;
53151;SDS011;39234;53.158;6.322;2023-04-10T01:48:10;47.85;;;33.80;;
53151;SDS011;39234;53.158;6.322;2023-04-10T01:50:37;47.33;;;33.90;;
53151;SDS011;39234;53.158;6.322;2023-04-10T01:53:04;47.53;;;33.13;;
53151;SDS011;39234;53.158;6.322;2023-04-10T01:55:31;49.40;;;34.53;;
53151;SDS011;39234;53.158;6.322;2023-04-10T01:57:58;56.53;;;36.35;;
53151;SDS011;39234;53.158;6.322;2023-04-10T02:00:25;51.00;;;37.28;;
53151;SDS011;39234;53.158;6.322;2023-04-10T02:02:51;51.55;;;36.88;;
53151;SDS011;39234;53.158;6.322;2023-04-10T02:05:18;52.33;;;36.40;;
53151;SDS011;39234;53.158;6.322;2023-04-10T02:07:57;53.88;;;37.72;;
53151;SDS011;39234;53.158;6.322;2023-04-10T02:10:57;56.35;;;37.60;;
53151;SDS011;39234;53.158;6.322;2023-04-10T02:13:28;52.97;;;37.92;;
53151;SDS011;39234;53.158;6.322;2023-04-10T02:15:58;54.47;;;37.92;;
53151;SDS011;39234;53.158;6.322;2023-04-10T02:18:28;62.15;;;41.40;;
53151;SDS011;39234;53.158;6.322;2023-04-10T02:20:55;60.03;;;40.47;;
53151;SDS011;39234;53.158;6.322;2023-04-10T02:23:21;59.42;;;39.33;;
53151;SDS011;39234;53.158;6.322;2023-04-10T02:25:47;57.38;;;39.58;;
53151;SDS011;39234;53.158;6.322;2023-04-10T02:28:13;57.08;;;40.33;;
53151;SDS011;39234;53.158;6.322;2023-04-10T02:30:39;60.83;;;40.85;;
53151;SDS011;39234;53.158;6.322;2023-04-10T02:33:05;59.50;;;42.83;;
53151;SDS011;39234;53.158;6.322;2023-04-10T02:35:31;58.20;;;40.90;;
53151;SDS011;39234;53.158;6.322;2023-04-10T02:37:58;60.10;;;41.33;;
53151;SDS011;39234;53.158;6.322;2023-04-10T02:40:24;62.08;;;42.47;;
53151;SDS011;39234;53.158;6.322;2023-04-10T02:42:50;64.50;;;43.30;;
53151;SDS011;39234;53.158;6.322;2023-04-10T02:45:15;60.03;;;42.58;;
53151;SDS011;39234;53.158;6.322;2023-04-10T02:47:41;64.47;;;41.85;;
53151;SDS011;39234;53.158;6.322;2023-04-10T02:50:07;60.38;;;41.40;;
53151;SDS011;39234;53.158;6.322;2023-04-10T02:52:34;59.45;;;41.83;;
53151;SDS011;39234;53.158;6.322;2023-04-10T02:55:00;64.03;;;43.15;;
53151;SDS011;39234;53.158;6.322;2023-04-10T02:57:25;61.80;;;42.15;;
53151;SDS011;39234;53.158;6.322;2023-04-10T02:59:52;63.38;;;42.88;;
53151;SDS011;39234;53.158;6.322;2023-04-10T03:02:18;62.22;;;41.95;;
53151;SDS011;39234;53.158;6.322;2023-04-10T03:04:45;57.30;;;40.85;;
53151;SDS011;39234;53.158;6.322;2023-04-10T03:07:11;61.08;;;41.60;;
53151;SDS011;39234;53.158;6.322;2023-04-10T03:09:37;57.20;;;40.80;;
53151;SDS011;39234;53.158;6.322;2023-04-10T03:12:03;58.08;;;40.80;;
53151;SDS011;39234;53.158;6.322;2023-04-10T03:14:29;60.80;;;40.92;;
53151;SDS011;39234;53.158;6.322;2023-04-10T03:16:55;64.20;;;41.53;;
53151;SDS011;39234;53.158;6.322;2023-04-10T03:19:21;59.58;;;42.00;;
53151;SDS011;39234;53.158;6.322;2023-04-10T03:21:47;61.85;;;41.47;;
53151;SDS011;39234;53.158;6.322;2023-04-10T03:24:13;58.55;;;40.22;;
53151;SDS011;39234;53.158;6.322;2023-04-10T03:26:38;60.85;;;42.33;;
53151;SDS011;39234;53.158;6.322;2023-04-10T03:29:04;61.03;;;41.25;;
53151;SDS011;39234;53.158;6.322;2023-04-10T03:31:30;58.67;;;42.17;;
53151;SDS011;39234;53.158;6.322;2023-04-10T03:33:56;58.22;;;42.25;;
53151;SDS011;39234;53.158;6.322;2023-04-10T03:36:22;59.70;;;42.83;;
53151;SDS011;39234;53.158;6.322;2023-04-10T03:38:47;57.33;;;41.15;;
53151;SDS011;39234;53.158;6.322;2023-04-10T03:41:13;56.25;;;40.28;;
53151;SDS011;39234;53.158;6.322;2023-04-10T03:43:39;60.30;;;41.40;;
53151;SDS011;39234;53.158;6.322;2023-04-10T03:46:05;55.92;;;40.47;;
53151;SDS011;39234;53.158;6.322;2023-04-10T03:48:31;54.88;;;39.33;;
53151;SDS011;39234;53.158;6.322;2023-04-10T03:50:57;56.45;;;38.88;;
53151;SDS011;39234;53.158;6.322;2023-04-10T03:53:23;58.55;;;40.05;;
53151;SDS011;39234;53.158;6.322;2023-04-10T03:55:49;54.05;;;40.22;;
53151;SDS011;39234;53.158;6.322;2023-04-10T03:58:16;55.70;;;39.85;;
53151;SDS011;39234;53.158;6.322;2023-04-10T04:00:43;57.45;;;40.70;;
53151;SDS011;39234;53.158;6.322;2023-04-10T04:03:09;57.38;;;38.95;;
53151;SDS011;39234;53.158;6.322;2023-04-10T04:05:36;55.15;;;39.15;;
53151;SDS011;39234;53.158;6.322;2023-04-10T04:08:01;56.53;;;39.22;;
53151;SDS011;39234;53.158;6.322;2023-04-10T04:10:30;60.08;;;39.28;;
53151;SDS011;39234;53.158;6.322;2023-04-10T04:12:57;56.13;;;39.97;;
53151;SDS011;39234;53.158;6.322;2023-04-10T04:15:22;57.50;;;39.50;;
53151;SDS011;39234;53.158;6.322;2023-04-10T04:17:48;56.72;;;38.72;;
53151;SDS011;39234;53.158;6.322;2023-04-10T04:20:15;58.83;;;38.70;;
53151;SDS011;39234;53.158;6.322;2023-04-10T04:22:40;55.80;;;38.45;;
53151;SDS011;39234;53.158;6.322;2023-04-10T04:25:07;55.90;;;38.97;;
53151;SDS011;39234;53.158;6.322;2023-04-10T04:27:35;53.05;;;37.70;;
53151;SDS011;39234;53.158;6.322;2023-04-10T04:30:02;58.35;;;39.42;;
53151;SDS011;39234;53.158;6.322;2023-04-10T04:32:28;55.17;;;39.00;;
53151;SDS011;39234;53.158;6.322;2023-04-10T04:34:54;57.58;;;39.10;;
53151;SDS011;39234;53.158;6.322;2023-04-10T04:37:20;61.80;;;39.85;;
53151;SDS011;39234;53.158;6.322;2023-04-10T04:39:46;58.28;;;39.67;;
53151;SDS011;39234;53.158;6.322;2023-04-10T04:42:11;61.83;;;41.22;;
53151;SDS011;39234;53.158;6.322;2023-04-10T04:44:37;58.28;;;40.10;;
53151;SDS011;39234;53.158;6.322;2023-04-10T04:47:03;52.70;;;37.65;;
53151;SDS011;39234;53.158;6.322;2023-04-10T04:49:29;62.03;;;42.30;;
53151;SDS011;39234;53.158;6.322;2023-04-10T04:51:54;55.45;;;39.13;;
53151;SDS011;39234;53.158;6.322;2023-04-10T04:54:21;53.22;;;38.03;;
53151;SDS011;39234;53.158;6.322;2023-04-10T04:56:46;55.15;;;38.70;;
53151;SDS011;39234;53.158;6.322;2023-04-10T04:59:12;54.25;;;38.22;;
53151;SDS011;39234;53.158;6.322;2023-04-10T05:01:38;49.42;;;37.15;;
53151;SDS011;39234;53.158;6.322;2023-04-10T05:04:03;53.03;;;37.00;;
53151;SDS011;39234;53.158;6.322;2023-04-10T05:06:29;55.03;;;37.63;;
53151;SDS011;39234;53.158;6.322;2023-04-10T05:08:55;54.47;;;37.50;;
53151;SDS011;39234;53.158;6.322;2023-04-10T05:11:21;51.95;;;36.13;;
53151;SDS011;39234;53.158;6.322;2023-04-10T05:13:47;52.28;;;36.50;;
53151;SDS011;39234;53.158;6.322;2023-04-10T05:16:12;53.35;;;36.25;;
53151;SDS011;39234;53.158;6.322;2023-04-10T05:18:39;50.58;;;35.88;;
53151;SDS011;39234;53.158;6.322;2023-04-10T05:21:05;50.33;;;35.33;;
53151;SDS011;39234;53.158;6.322;2023-04-10T05:23:32;51.67;;;35.70;;
53151;SDS011;39234;53.158;6.322;2023-04-10T05:25:57;48.05;;;33.53;;
53151;SDS011;39234;53.158;6.322;2023-04-10T05:28:23;48.45;;;35.28;;
53151;SDS011;39234;53.158;6.322;2023-04-10T05:30:49;51.53;;;35.67;;
53151;SDS011;39234;53.158;6.322;2023-04-10T05:33:14;47.75;;;34.58;;
53151;SDS011;39234;53.158;6.322;2023-04-10T05:35:40;50.05;;;34.88;;
53151;SDS011;39234;53.158;6.322;2023-04-10T05:38:06;44.63;;;31.83;;
53151;SDS011;39234;53.158;6.322;2023-04-10T05:40:32;47.67;;;32.88;;
53151;SDS011;39234;53.158;6.322;2023-04-10T05:42:58;44.15;;;31.58;;
53151;SDS011;39234;53.158;6.322;2023-04-10T05:45:23;42.65;;;30.55;;
53151;SDS011;39234;53.158;6.322;2023-04-10T05:47:49;40.33;;;29.15;;
53151;SDS011;39234;53.158;6.322;2023-04-10T05:50:15;45.45;;;31.55;;
53151;SDS011;39234;53.158;6.322;2023-04-10T05:52:41;45.42;;;30.60;;
53151;SDS011;39234;53.158;6.322;2023-04-10T05:55:07;53.80;;;30.10;;
53151;SDS011;39234;53.158;6.322;2023-04-10T05:57:33;41.72;;;30.08;;
53151;SDS011;39234;53.158;6.322;2023-04-10T05:59:58;43.80;;;29.75;;
53151;SDS011;39234;53.158;6.322;2023-04-10T06:02:24;41.25;;;29.20;;
53151;SDS011;39234;53.158;6.322;2023-04-10T06:04:51;41.92;;;29.95;;
53151;SDS011;39234;53.158;6.322;2023-04-10T06:07:16;41.55;;;30.42;;
53151;SDS011;39234;53.158;6.322;2023-04-10T06:09:42;41.95;;;30.20;;
53151;SDS011;39234;53.158;6.322;2023-04-10T06:12:08;43.17;;;30.42;;
53151;SDS011;39234;53.158;6.322;2023-04-10T06:14:33;40.92;;;29.80;;
53151;SDS011;39234;53.158;6.322;2023-04-10T06:16:59;38.95;;;28.40;;
53151;SDS011;39234;53.158;6.322;2023-04-10T06:19:26;42.35;;;28.23;;
53151;SDS011;39234;53.158;6.322;2023-04-10T06:21:51;38.53;;;27.90;;
53151;SDS011;39234;53.158;6.322;2023-04-10T06:24:17;39.75;;;29.23;;
53151;SDS011;39234;53.158;6.322;2023-04-10T06:26:43;35.13;;;26.05;;
53151;SDS011;39234;53.158;6.322;2023-04-10T06:29:09;36.40;;;26.08;;
53151;SDS011;39234;53.158;6.322;2023-04-10T06:31:35;36.85;;;27.25;;
53151;SDS011;39234;53.158;6.322;2023-04-10T06:34:01;33.22;;;25.30;;
53151;SDS011;39234;53.158;6.322;2023-04-10T06:36:27;34.97;;;26.45;;
53151;SDS011;39234;53.158;6.322;2023-04-10T06:38:52;37.22;;;24.67;;
53151;SDS011;39234;53.158;6.322;2023-04-10T06:41:18;33.25;;;25.63;;
53151;SDS011;39234;53.158;6.322;2023-04-10T06:43:44;35.30;;;25.67;;
53151;SDS011;39234;53.158;6.322;2023-04-10T06:46:10;34.05;;;24.45;;
53151;SDS011;39234;53.158;6.322;2023-04-10T06:48:36;31.30;;;23.52;;
53151;SDS011;39234;53.158;6.322;2023-04-10T06:51:02;31.63;;;23.52;;
53151;SDS011;39234;53.158;6.322;2023-04-10T06:53:28;34.83;;;25.23;;
53151;SDS011;39234;53.158;6.322;2023-04-10T06:55:54;30.35;;;22.45;;
53151;SDS011;39234;53.158;6.322;2023-04-10T06:58:20;31.83;;;24.20;;
53151;SDS011;39234;53.158;6.322;2023-04-10T07:00:46;32.20;;;24.27;;
53151;SDS011;39234;53.158;6.322;2023-04-10T07:03:12;30.58;;;23.60;;
53151;SDS011;39234;53.158;6.322;2023-04-10T07:05:38;29.85;;;22.45;;
53151;SDS011;39234;53.158;6.322;2023-04-10T07:08:04;32.90;;;22.55;;
53151;SDS011;39234;53.158;6.322;2023-04-10T07:10:29;32.00;;;22.75;;
53151;SDS011;39234;53.158;6.322;2023-04-10T07:12:55;29.23;;;23.15;;
53151;SDS011;39234;53.158;6.322;2023-04-10T07:15:23;28.00;;;22.10;;
53151;SDS011;39234;53.158;6.322;2023-04-10T07:17:49;30.80;;;23.35;;
53151;SDS011;39234;53.158;6.322;2023-04-10T07:20:14;28.70;;;22.65;;
53151;SDS011;39234;53.158;6.322;2023-04-10T07:22:40;31.10;;;23.30;;
53151;SDS011;39234;53.158;6.322;2023-04-10T07:25:06;31.00;;;23.60;;
53151;SDS011;39234;53.158;6.322;2023-04-10T07:27:32;29.40;;;23.58;;
53151;SDS011;39234;53.158;6.322;2023-04-10T07:29:58;29.42;;;23.85;;
53151;SDS011;39234;53.158;6.322;2023-04-10T07:32:24;28.15;;;22.90;;
53151;SDS011;39234;53.158;6.322;2023-04-10T07:34:49;30.40;;;24.23;;
53151;SDS011;39234;53.158;6.322;2023-04-10T07:37:15;31.98;;;23.38;;
53151;SDS011;39234;53.158;6.322;2023-04-10T07:39:42;30.70;;;24.08;;
53151;SDS011;39234;53.158;6.322;2023-04-10T07:42:08;30.17;;;24.67;;
53151;SDS011;39234;53.158;6.322;2023-04-10T07:44:37;33.72;;;25.40;;
53151;SDS011;39234;53.158;6.322;2023-04-10T07:47:03;31.73;;;24.83;;
53151;SDS011;39234;53.158;6.322;2023-04-10T07:49:28;30.08;;;24.10;;
53151;SDS011;39234;53.158;6.322;2023-04-10T07:51:54;28.85;;;22.88;;
53151;SDS011;39234;53.158;6.322;2023-04-10T07:54:20;29.95;;;23.08;;
53151;SDS011;39234;53.158;6.322;2023-04-10T07:56:46;30.27;;;23.60;;
53151;SDS011;39234;53.158;6.322;2023-04-10T07:59:12;31.00;;;23.08;;
53151;SDS011;39234;53.158;6.322;2023-04-10T08:01:37;31.30;;;24.88;;
53151;SDS011;39234;53.158;6.322;2023-04-10T08:04:03;30.13;;;22.73;;
53151;SDS011;39234;53.158;6.322;2023-04-10T08:06:29;29.45;;;22.85;;
53151;SDS011;39234;53.158;6.322;2023-04-10T08:08:56;31.02;;;22.55;;
53151;SDS011;39234;53.158;6.322;2023-04-10T08:11:29;31.65;;;23.05;;
53151;SDS011;39234;53.158;6.322;2023-04-10T08:13:57;28.23;;;23.00;;
53151;SDS011;39234;53.158;6.322;2023-04-10T08:16:27;28.05;;;22.60;;
53151;SDS011;39234;53.158;6.322;2023-04-10T08:18:55;28.50;;;21.17;;
53151;SDS011;39234;53.158;6.322;2023-04-10T08:21:22;28.60;;;23.13;;
53151;SDS011;39234;53.158;6.322;2023-04-10T08:23:49;29.15;;;23.52;;
53151;SDS011;39234;53.158;6.322;2023-04-10T08:26:15;28.75;;;21.75;;
53151;SDS011;39234;53.158;6.322;2023-04-10T08:28:41;29.83;;;22.10;;
53151;SDS011;39234;53.158;6.322;2023-04-10T08:31:11;29.42;;;20.77;;
53151;SDS011;39234;53.158;6.322;2023-04-10T08:33:38;27.10;;;21.00;;
53151;SDS011;39234;53.158;6.322;2023-04-10T08:36:03;28.00;;;21.33;;
53151;SDS011;39234;53.158;6.322;2023-04-10T08:38:30;26.70;;;19.73;;
53151;SDS011;39234;53.158;6.322;2023-04-10T08:40:56;24.48;;;19.33;;
53151;SDS011;39234;53.158;6.322;2023-04-10T08:43:22;25.67;;;19.88;;
53151;SDS011;39234;53.158;6.322;2023-04-10T08:45:50;24.27;;;18.95;;
53151;SDS011;39234;53.158;6.322;2023-04-10T08:48:17;24.65;;;18.58;;
53151;SDS011;39234;53.158;6.322;2023-04-10T08:50:46;23.15;;;18.15;;
53151;SDS011;39234;53.158;6.322;2023-04-10T08:53:14;23.92;;;18.15;;
53151;SDS011;39234;53.158;6.322;2023-04-10T08:55:40;23.50;;;17.88;;
53151;SDS011;39234;53.158;6.322;2023-04-10T08:58:08;23.23;;;17.50;;
53151;SDS011;39234;53.158;6.322;2023-04-10T09:00:35;21.73;;;16.90;;
53151;SDS011;39234;53.158;6.322;2023-04-10T09:03:08;20.58;;;16.88;;
53151;SDS011;39234;53.158;6.322;2023-04-10T09:05:35;20.67;;;16.05;;
53151;SDS011;39234;53.158;6.322;2023-04-10T09:08:06;20.50;;;16.13;;
53151;SDS011;39234;53.158;6.322;2023-04-10T09:10:32;20.75;;;15.88;;
53151;SDS011;39234;53.158;6.322;2023-04-10T09:12:57;20.30;;;16.13;;
53151;SDS011;39234;53.158;6.322;2023-04-10T09:15:23;21.98;;;15.77;;
53151;SDS011;39234;53.158;6.322;2023-04-10T09:17:59;21.08;;;16.95;;
53151;SDS011;39234;53.158;6.322;2023-04-10T09:20:30;20.27;;;15.48;;
53151;SDS011;39234;53.158;6.322;2023-04-10T09:22:57;18.20;;;15.05;;
53151;SDS011;39234;53.158;6.322;2023-04-10T09:28:02;17.90;;;14.07;;
53151;SDS011;39234;53.158;6.322;2023-04-10T09:30:32;18.65;;;14.05;;
53151;SDS011;39234;53.158;6.322;2023-04-10T09:33:00;19.08;;;14.32;;
53151;SDS011;39234;53.158;6.322;2023-04-10T09:35:36;17.73;;;13.52;;
53151;SDS011;39234;53.158;6.322;2023-04-10T09:38:16;16.98;;;13.07;;
53151;SDS011;39234;53.158;6.322;2023-04-10T09:40:43;15.50;;;11.85;;
53151;SDS011;39234;53.158;6.322;2023-04-10T09:43:19;17.73;;;13.13;;
53151;SDS011;39234;53.158;6.322;2023-04-10T09:45:50;16.98;;;13.18;;
53151;SDS011;39234;53.158;6.322;2023-04-10T09:48:18;19.63;;;13.88;;
53151;SDS011;39234;53.158;6.322;2023-04-10T09:50:45;18.20;;;12.07;;
53151;SDS011;39234;53.158;6.322;2023-04-10T09:53:12;15.32;;;11.93;;
53151;SDS011;39234;53.158;6.322;2023-04-10T09:55:39;16.13;;;12.70;;
53151;SDS011;39234;53.158;6.322;2023-04-10T09:58:06;16.30;;;12.15;;
53151;SDS011;39234;53.158;6.322;2023-04-10T10:00:34;14.55;;;11.00;;
53151;SDS011;39234;53.158;6.322;2023-04-10T10:03:25;15.70;;;10.70;;
53151;SDS011;39234;53.158;6.322;2023-04-10T10:05:50;12.48;;;10.05;;
53151;SDS011;39234;53.158;6.322;2023-04-10T10:08:16;13.93;;;10.43;;
53151;SDS011;39234;53.158;6.322;2023-04-10T10:10:46;12.50;;;10.10;;
53151;SDS011;39234;53.158;6.322;2023-04-10T10:13:37;12.95;;;10.30;;
53151;SDS011;39234;53.158;6.322;2023-04-10T10:16:18;13.07;;;10.45;;
53151;SDS011;39234;53.158;6.322;2023-04-10T10:18:49;13.63;;;10.35;;
53151;SDS011;39234;53.158;6.322;2023-04-10T10:21:23;13.85;;;10.77;;
53151;SDS011;39234;53.158;6.322;2023-04-10T10:23:51;11.27;;;9.00;;
53151;SDS011;39234;53.158;6.322;2023-04-10T10:26:21;11.80;;;9.57;;
53151;SDS011;39234;53.158;6.322;2023-04-10T10:28:49;12.30;;;9.35;;
53151;SDS011;39234;53.158;6.322;2023-04-10T10:31:18;11.00;;;8.80;;
53151;SDS011;39234;53.158;6.322;2023-04-10T10:33:46;11.00;;;8.73;;
53151;SDS011;39234;53.158;6.322;2023-04-10T10:36:13;14.27;;;9.55;;
53151;SDS011;39234;53.158;6.322;2023-04-10T10:38:43;11.43;;;8.18;;
53151;SDS011;39234;53.158;6.322;2023-04-10T10:41:17;11.38;;;8.88;;
53151;SDS011;39234;53.158;6.322;2023-04-10T10:43:58;11.02;;;8.30;;
53151;SDS011;39234;53.158;6.322;2023-04-10T10:46:48;12.05;;;9.13;;
53151;SDS011;39234;53.158;6.322;2023-04-10T10:49:49;10.80;;;8.65;;
53151;SDS011;39234;53.158;6.322;2023-04-10T10:55:26;11.23;;;9.05;;
53151;SDS011;39234;53.158;6.322;2023-04-10T10:57:59;10.90;;;8.10;;
53151;SDS011;39234;53.158;6.322;2023-04-10T11:05:49;10.95;;;8.90;;
53151;SDS011;39234;53.158;6.322;2023-04-10T11:08:16;13.45;;;9.43;;
53151;SDS011;39234;53.158;6.322;2023-04-10T11:10:58;11.15;;;8.25;;
53151;SDS011;39234;53.158;6.322;2023-04-10T11:13:25;9.70;;;7.65;;
53151;SDS011;39234;53.158;6.322;2023-04-10T11:15:50;10.07;;;7.82;;
53151;SDS011;39234;53.158;6.322;2023-04-10T11:18:16;10.35;;;7.38;;
53151;SDS011;39234;53.158;6.322;2023-04-10T11:23:34;10.00;;;7.35;;
53151;SDS011;39234;53.158;6.322;2023-04-10T11:26:00;11.82;;;6.78;;
53151;SDS011;39234;53.158;6.322;2023-04-10T11:31:18;8.07;;;6.38;;
53151;SDS011;39234;53.158;6.322;2023-04-10T11:36:23;9.50;;;5.70;;
53151;SDS011;39234;53.158;6.322;2023-04-10T11:41:29;9.63;;;6.78;;
53151;SDS011;39234;53.158;6.322;2023-04-10T11:43:57;9.00;;;5.70;;
53151;SDS011;39234;53.158;6.322;2023-04-10T11:46:24;9.10;;;6.22;;
53151;SDS011;39234;53.158;6.322;2023-04-10T11:48:59;8.73;;;5.90;;
53151;SDS011;39234;53.158;6.322;2023-04-10T11:51:27;7.85;;;5.43;;
53151;SDS011;39234;53.158;6.322;2023-04-10T11:56:42;8.10;;;5.60;;
53151;SDS011;39234;53.158;6.322;2023-04-10T11:59:09;9.25;;;5.53;;
53151;SDS011;39234;53.158;6.322;2023-04-10T12:01:37;7.43;;;5.60;;
53151;SDS011;39234;53.158;6.322;2023-04-10T12:06:42;10.55;;;5.38;;
53151;SDS011;39234;53.158;6.322;2023-04-10T12:09:16;7.82;;;5.05;;
53151;SDS011;39234;53.158;6.322;2023-04-10T12:11:47;7.55;;;4.82;;
53151;SDS011;39234;53.158;6.322;2023-04-10T12:14:18;8.48;;;5.20;;
53151;SDS011;39234;53.158;6.322;2023-04-10T12:16:46;9.70;;;5.22;;
53151;SDS011;39234;53.158;6.322;2023-04-10T12:19:13;6.82;;;4.50;;
53151;SDS011;39234;53.158;6.322;2023-04-10T12:21:40;6.78;;;4.00;;
53151;SDS011;39234;53.158;6.322;2023-04-10T12:24:09;6.82;;;4.57;;
53151;SDS011;39234;53.158;6.322;2023-04-10T12:26:36;8.25;;;4.70;;
53151;SDS011;39234;53.158;6.322;2023-04-10T12:29:02;7.97;;;4.35;;
53151;SDS011;39234;53.158;6.322;2023-04-10T12:31:33;7.57;;;4.60;;
53151;SDS011;39234;53.158;6.322;2023-04-10T12:34:01;8.55;;;4.88;;
53151;SDS011;39234;53.158;6.322;2023-04-10T12:36:29;9.23;;;4.63;;
53151;SDS011;39234;53.158;6.322;2023-04-10T12:38:59;8.02;;;4.80;;
53151;SDS011;39234;53.158;6.322;2023-04-10T12:41:27;9.70;;;4.97;;
53151;SDS011;39234;53.158;6.322;2023-04-10T12:44:10;6.63;;;4.53;;
53151;SDS011;39234;53.158;6.322;2023-04-10T12:46:38;8.98;;;5.25;;
53151;SDS011;39234;53.158;6.322;2023-04-10T12:49:08;9.05;;;4.63;;
53151;SDS011;39234;53.158;6.322;2023-04-10T12:51:47;8.27;;;4.80;;
53151;SDS011;39234;53.158;6.322;2023-04-10T12:54:29;8.95;;;5.15;;
53151;SDS011;39234;53.158;6.322;2023-04-10T12:56:57;7.85;;;5.18;;
53151;SDS011;39234;53.158;6.322;2023-04-10T12:59:23;9.00;;;5.15;;
53151;SDS011;39234;53.158;6.322;2023-04-10T13:01:50;7.20;;;4.97;;
53151;SDS011;39234;53.158;6.322;2023-04-10T13:04:17;7.22;;;5.07;;
53151;SDS011;39234;53.158;6.322;2023-04-10T13:06:43;9.10;;;4.97;;
53151;SDS011;39234;53.158;6.322;2023-04-10T13:09:14;7.18;;;5.07;;
53151;SDS011;39234;53.158;6.322;2023-04-10T13:11:40;7.72;;;5.57;;
53151;SDS011;39234;53.158;6.322;2023-04-10T13:14:07;8.77;;;5.35;;
53151;SDS011;39234;53.158;6.322;2023-04-10T13:16:33;7.40;;;4.78;;
53151;SDS011;39234;53.158;6.322;2023-04-10T13:18:59;7.80;;;5.38;;
53151;SDS011;39234;53.158;6.322;2023-04-10T13:21:26;6.97;;;5.38;;
53151;SDS011;39234;53.158;6.322;2023-04-10T13:23:53;8.50;;;6.00;;
53151;SDS011;39234;53.158;6.322;2023-04-10T13:26:22;10.90;;;5.68;;
53151;SDS011;39234;53.158;6.322;2023-04-10T13:28:48;7.70;;;5.30;;
53151;SDS011;39234;53.158;6.322;2023-04-10T13:31:14;7.18;;;5.20;;
53151;SDS011;39234;53.158;6.322;2023-04-10T13:33:44;9.75;;;5.63;;
53151;SDS011;39234;53.158;6.322;2023-04-10T13:36:12;7.93;;;5.50;;
53151;SDS011;39234;53.158;6.322;2023-04-10T13:38:38;8.50;;;5.65;;
53151;SDS011;39234;53.158;6.322;2023-04-10T13:41:04;7.45;;;5.38;;
53151;SDS011;39234;53.158;6.322;2023-04-10T13:43:30;7.70;;;5.93;;
53151;SDS011;39234;53.158;6.322;2023-04-10T13:45:56;9.93;;;5.70;;
53151;SDS011;39234;53.158;6.322;2023-04-10T13:48:22;7.20;;;5.57;;
53151;SDS011;39234;53.158;6.322;2023-04-10T13:50:47;8.57;;;6.00;;
53151;SDS011;39234;53.158;6.322;2023-04-10T13:53:13;8.27;;;5.72;;
53151;SDS011;39234;53.158;6.322;2023-04-10T13:55:39;7.90;;;5.68;;
53151;SDS011;39234;53.158;6.322;2023-04-10T13:58:10;8.55;;;5.90;;
53151;SDS011;39234;53.158;6.322;2023-04-10T14:00:38;9.40;;;5.47;;
53151;SDS011;39234;53.158;6.322;2023-04-10T14:03:07;8.60;;;6.05;;
53151;SDS011;39234;53.158;6.322;2023-04-10T14:05:34;7.30;;;5.57;;
53151;SDS011;39234;53.158;6.322;2023-04-10T14:08:00;9.20;;;5.85;;
53151;SDS011;39234;53.158;6.322;2023-04-10T14:10:26;9.52;;;5.65;;
53151;SDS011;39234;53.158;6.322;2023-04-10T14:12:51;7.30;;;5.30;;
53151;SDS011;39234;53.158;6.322;2023-04-10T14:15:17;9.07;;;5.22;;
53151;SDS011;39234;53.158;6.322;2023-04-10T14:17:43;9.02;;;5.00;;
53151;SDS011;39234;53.158;6.322;2023-04-10T14:20:09;6.57;;;5.20;;
53151;SDS011;39234;53.158;6.322;2023-04-10T14:22:37;7.90;;;4.85;;
53151;SDS011;39234;53.158;6.322;2023-04-10T14:25:03;8.00;;;5.28;;
53151;SDS011;39234;53.158;6.322;2023-04-10T14:27:30;8.02;;;5.20;;
53151;SDS011;39234;53.158;6.322;2023-04-10T14:29:57;7.57;;;5.28;;
53151;SDS011;39234;53.158;6.322;2023-04-10T14:32:23;7.68;;;5.60;;
53151;SDS011;39234;53.158;6.322;2023-04-10T14:34:48;7.47;;;5.22;;
53151;SDS011;39234;53.158;6.322;2023-04-10T14:37:14;7.25;;;5.22;;
53151;SDS011;39234;53.158;6.322;2023-04-10T14:39:40;7.43;;;5.20;;
53151;SDS011;39234;53.158;6.322;2023-04-10T14:42:06;7.30;;;4.97;;
53151;SDS011;39234;53.158;6.322;2023-04-10T14:44:31;8.77;;;5.13;;
53151;SDS011;39234;53.158;6.322;2023-04-10T14:46:57;7.38;;;5.50;;
53151;SDS011;39234;53.158;6.322;2023-04-10T14:49:23;8.30;;;5.35;;
53151;SDS011;39234;53.158;6.322;2023-04-10T14:51:49;8.00;;;5.45;;
53151;SDS011;39234;53.158;6.322;2023-04-10T14:54:15;9.70;;;5.30;;
53151;SDS011;39234;53.158;6.322;2023-04-10T14:56:41;7.55;;;5.20;;
53151;SDS011;39234;53.158;6.322;2023-04-10T14:59:06;7.40;;;5.40;;
53151;SDS011;39234;53.158;6.322;2023-04-10T15:01:33;10.20;;;5.30;;
53151;SDS011;39234;53.158;6.322;2023-04-10T15:04:00;7.72;;;4.88;;
53151;SDS011;39234;53.158;6.322;2023-04-10T15:06:26;9.05;;;5.80;;